Terminal Aerodrome Forecast
Issued by NWS

Home | Current Version | Previous Version | Text Only | Print | Product List | Glossary Off
Versions: 1 2 3 4 5 6 7 8 9 10 11 12 13 14

000
FTUS43 KICT 021720
TAFRSL
TAF
KRSL 021720Z 0218/0318 18020G28KT P6SM FEW120
     FM030100 18013KT P6SM FEW100
     FM031400 19018G25KT P6SM SCT100=

USA.gov is the U.S. government's official web portal to all federal, state and local government web resources and services.